• Join FlightAware (Why Join?)
  • Login
  • US Flag 
05:49AM EST


 

Airport Tracker/Info


-or-


 

Live Flight TrackerFlight Track Log ✈ UPS1134 ✈ 18-Jul-2013 ✈ KALB - KSYR

Flight Track Log - Related Links

Times and Time Zones

All times are in EDT time to prevent confusion due to time zone crossing. See the UPS1134 flight status page for this flight to view local times or setup timezone preferences in your user account.

Time Position Orientation Groundspeed Altitude Reporting Facility
EDT Latitude Longitude Course Direction KTS MPH feet Rate Location/Type
04:23AM 42.7258 -73.9664 270° West 219 252 6,500  Level Boston Center
04:24AM 42.7431 -74.0628 284° West 243 280 10,600 600 Climbing Boston Center
04:30AM 42.8970 -74.9000 284° West 373 429 11,200  Climbing FlightAware
04:31AM 42.9150 -74.9920 285° West 356 410 10,900 -240 Descending FlightAware
04:32AM 42.9320 -75.0790 285° West 300 345 10,900 -240 Level FlightAware
04:32AM 42.9460 -75.1480 286° West 269 310 10,600 -960 Descending FlightAware
04:33AM 42.9550 -75.1960 284° West 266 306 9,800 -1,500 Descending FlightAware
04:33AM 42.9640 -75.2380 286° West 265 305 9,200 -1,500 Descending FlightAware
04:34AM 42.9730 -75.2870 284° West 263 303 8,400 -1,560 Descending FlightAware
04:34AM 42.9820 -75.3310 286° West 261 300 7,700 -1,440 Descending FlightAware
04:34AM 42.9860 -75.3540 283° West 259 298 7,400 -1,500 Descending FlightAware
04:35AM 42.9940 -75.3960 285° West 258 297 6,700 -1,500 Descending FlightAware
04:35AM 43.0010 -75.4310 285° West 256 295 6,200 -1,440 Descending FlightAware
04:36AM 43.0110 -75.4780 286° West 253 291 5,500 -1,500 Descending FlightAware
04:36AM 43.0190 -75.5200 285° West 254 292 4,800 -1,500 Descending FlightAware
04:37AM 43.0270 -75.5630 284° West 252 290 4,100 -1,020 Descending FlightAware
04:37AM 43.0360 -75.6070 286° West 253 291 3,900 -300 Descending FlightAware
04:37AM 43.0390 -75.6260 282° West 253 291 3,900  Level FlightAware
04:38AM 43.0480 -75.6690 286° West 251 289 3,900  Level FlightAware
04:38AM 43.0560 -75.7120 284° West 253 291 3,900 -120 Level FlightAware
04:39AM 43.0640 -75.7540 285° West 248 285 3,800 -900 Descending FlightAware
04:39AM 43.0730 -75.7980 286° West 245 282 3,100 -1,260 Descending FlightAware
04:39AM 43.0770 -75.8210 283° West 244 281 2,900 -300 Descending FlightAware
04:40AM 43.0830 -75.8560 283° West 221 254 2,900  Level FlightAware
04:40AM 43.0890 -75.8880 284° West 201 231 2,900 -480 Level FlightAware
04:41AM 43.0970 -75.9200 289° West 185 213 2,500 -780 Descending FlightAware
04:41AM 43.1060 -75.9480 294° West 168 193 2,200 -780 Descending FlightAware
04:42AM 43.1100 -75.9780 280° West 146 168 1,800 -660 Descending FlightAware
04:42AM 43.1110 -75.9910 276° West 127 146 1,700 -420 Descending FlightAware
04:42AM 43.1120 -76.0030 277° West 118 136 1,600 -600 Descending FlightAware
04:43AM 43.1110 -76.0240 266° West 118 136 1,300 -660 Descending FlightAware
04:43AM 43.1110 -76.0450 270° West 111 128 1,000 -660 Descending FlightAware
04:44AM 43.1100 -76.0640 266° West 113 130 700 -660 Descending FlightAware
04:44AM 43.1090 -76.0870 267° West 122 140 400 -300 Descending FlightAware
04:45AM 43.1090 -76.1060 270° West 122 140 400  Level FlightAware
04:51AM 43.1112 -76.1063 270° West  Level Estimated
04:52AM 43.1112 -76.1063 270° West  Level Estimated
04:53AM 43.1112 -76.1063 270° West  Level Estimated
04:54AM 43.1112 -76.1063 270° West  Level Estimated
04:55AM 43.1112 -76.1063 270° West  Level Estimated
04:56AM 43.1112 -76.1063 270° West  Level Estimated
04:57AM 43.1112 -76.1063 270° West  Level Estimated
04:58AM 43.1112 -76.1063 270° West  Level Estimated
04:59AM 43.1112 -76.1063 270° West  Level Estimated